Time;durP1;ratioP1;P1;durP2;ratioP2;P2;SDS_P1;SDS_P2;PMS_P1;PMS_P2;Temp;Humidity;BMP_temperature;BMP_pressure;BME280_temperature;BME280_humidity;BME280_pressure;Samples;Min_cycle;Max_cycle;Signal;HPM_P1;HPM_P2
2022/05/01 00:02:06;;;;;;;16.15;12.27;;;;;;;8.17;90.35;102310.78;5356152;27;20042;-65
2022/05/01 00:04:37;;;;;;;16.23;11.48;;;;;;;8.29;90.62;102317.38;5353921;27;20113;-65
2022/05/01 00:07:12;;;;;;;15.38;11.57;;;;;;;8.14;90.67;102302.94;5349948;27;20038;-65
2022/05/01 00:09:43;;;;;;;;;;;;;;;8.27;88.80;102313.06;5350735;27;20046;-65
2022/05/01 00:12:14;;;;;;;16.05;11.45;;;;;;;8.19;89.91;102311.59;5350209;27;19926;-65
2022/05/01 00:14:45;;;;;;;15.90;12.00;;;;;;;8.17;90.04;102313.44;5350609;27;20023;-65
2022/05/01 00:17:17;;;;;;;16.45;12.13;;;;;;;8.15;90.16;102311.75;5349097;27;20030;-65
2022/05/01 00:19:48;;;;;;;16.77;11.75;;;;;;;8.20;90.60;102312.44;5316264;28;20047;-65
2022/05/01 00:22:20;;;;;;;16.00;11.90;;;;;;;8.21;91.87;102308.84;5309207;28;20122;-65
2022/05/01 00:24:51;;;;;;;16.10;12.00;;;;;;;8.20;91.37;102313.28;5304057;28;20833;-65
2022/05/01 00:27:22;;;;;;;14.23;11.77;;;;;;;8.20;90.99;102315.09;5306447;28;20054;-65
2022/05/01 00:29:55;;;;;;;16.38;12.48;;;;;;;8.23;92.65;102312.31;5314721;28;20023;-65
2022/05/01 00:32:26;;;;;;;19.98;12.63;;;;;;;8.24;91.89;102317.53;5307728;28;20749;-65
2022/05/01 00:37:47;;;;;;;15.93;11.70;;;;;;;8.22;90.63;102311.44;5309055;28;20109;-65
2022/05/01 00:40:19;;;;;;;16.23;12.48;;;;;;;8.21;90.37;102303.53;5305455;28;20111;-65
2022/05/01 00:42:50;;;;;;;14.38;12.13;;;;;;;8.18;90.50;102308.97;5306457;28;20050;-65
2022/05/01 00:45:21;;;;;;;16.33;12.18;;;;;;;8.16;90.72;102301.06;5312461;27;20035;-65
2022/05/01 00:47:53;;;;;;;16.50;12.63;;;;;;;8.28;91.43;102302.31;5316003;27;20101;-65
2022/05/01 00:50:25;;;;;;;16.80;12.70;;;;;;;8.18;92.00;102301.88;5313332;28;20084;-65
2022/05/01 00:52:56;;;;;;;16.65;12.80;;;;;;;8.13;91.26;102300.31;5313684;27;20019;-65
2022/05/01 00:55:28;;;;;;;15.23;11.63;;;;;;;8.13;90.80;102297.66;5314252;27;20514;-65
2022/05/01 00:58:01;;;;;;;15.48;12.45;;;;;;;8.11;91.84;102300.41;5313792;27;20477;-65
2022/05/01 01:00:34;;;;;;;17.88;12.90;;;;;;;8.25;91.99;102298.00;5310161;27;20035;-65
2022/05/01 01:03:06;;;;;;;15.70;12.73;;;;;;;8.21;92.22;102298.22;5317200;27;20047;-65
2022/05/01 01:05:37;;;;;;;16.63;12.10;;;;;;;8.17;89.85;102294.84;5312964;27;20065;-65
2022/05/01 01:08:08;;;;;;;15.90;11.93;;;;;;;8.15;90.48;102287.84;5316201;27;20027;-65
2022/05/01 01:10:40;;;;;;;16.77;12.40;;;;;;;8.12;90.04;102293.31;5313419;27;20034;-65
2022/05/01 01:13:12;;;;;;;17.48;12.82;;;;;;;8.10;90.20;102295.16;5313797;27;20031;-65
2022/05/01 01:15:43;;;;;;;15.15;11.45;;;;;;;8.07;90.26;102293.47;5311451;27;20016;-65
2022/05/01 01:18:15;;;;;;;16.42;12.57;;;;;;;8.07;90.17;102295.28;5317402;27;20049;-65
2022/05/01 01:20:46;;;;;;;19.42;12.63;;;;;;;8.15;90.39;102290.50;5343702;27;20441;-65
2022/05/01 01:23:19;;;;;;;16.40;11.57;;;;;;;8.05;90.26;102280.28;5353579;27;20495;-65
2022/05/01 01:25:51;;;;;;;16.08;12.38;;;;;;;8.05;90.09;102290.03;5351491;27;20046;-65
2022/05/01 01:28:22;;;;;;;17.35;12.65;;;;;;;8.03;90.06;102292.78;5355674;27;20622;-65
2022/05/01 01:33:43;;;;;;;14.85;12.02;;;;;;;8.01;91.08;102285.78;5358853;27;20038;-65
2022/05/01 01:36:15;;;;;;;18.35;13.27;;;;;;;8.02;90.83;102283.06;5351802;27;20468;-65
2022/05/01 01:38:46;;;;;;;17.00;12.48;;;;;;;7.96;90.69;102291.28;5354953;27;20122;-65
2022/05/01 01:41:21;;;;;;;16.85;12.55;;;;;;;7.94;91.07;102290.50;5353860;27;20381;-65
2022/05/01 01:43:53;;;;;;;17.25;13.10;;;;;;;7.94;91.50;102289.59;5359007;27;20015;-65
2022/05/01 01:46:24;;;;;;;17.45;13.32;;;;;;;7.94;91.53;102287.84;5355333;27;20563;-65
2022/05/01 01:48:55;;;;;;;17.65;12.90;;;;;;;7.91;91.67;102279.97;5353775;27;20076;-65
2022/05/01 01:51:27;;;;;;;18.75;13.43;;;;;;;7.89;92.00;102281.84;5350737;27;20088;-65
2022/05/01 01:53:58;;;;;;;19.40;13.82;;;;;;;7.85;92.55;102277.59;5353303;27;20027;-65
2022/05/01 01:56:29;;;;;;;19.48;14.18;;;;;;;7.82;92.37;102283.91;5347907;27;20031;-65
2022/05/01 01:59:01;;;;;;;18.73;13.35;;;;;;;7.79;92.53;102278.72;5353169;27;20485;-65
2022/05/01 02:01:32;;;;;;;18.45;13.77;;;;;;;7.80;92.96;102282.22;5353352;27;20479;-65
2022/05/01 02:04:04;;;;;;;18.13;13.80;;;;;;;7.75;92.75;102284.22;5359443;27;20033;-65
2022/05/01 02:06:35;;;;;;;19.27;14.50;;;;;;;7.74;93.17;102280.69;5352640;27;20035;-65
2022/05/01 02:09:07;;;;;;;19.45;14.00;;;;;;;7.74;93.20;102283.34;5359015;27;20099;-65
2022/05/01 02:11:39;;;;;;;16.00;13.88;;;;;;;7.72;93.94;102284.34;5354953;27;20041;-65
2022/05/01 02:14:10;;;;;;;18.70;13.93;;;;;;;7.70;93.63;102272.91;5357168;27;20030;-65
2022/05/01 02:16:42;;;;;;;19.48;13.98;;;;;;;7.69;94.09;102281.81;5358583;27;20039;-65
2022/05/01 02:19:14;;;;;;;20.40;14.38;;;;;;;7.63;94.01;102285.56;5355612;27;20051;-66
2022/05/01 02:21:45;;;;;;;18.38;14.27;;;;;;;7.60;94.56;102278.59;5356171;27;20023;-65
2022/05/01 02:24:16;;;;;;;20.10;15.02;;;;;;;7.54;94.35;102275.34;5355829;27;20421;-65
2022/05/01 02:26:48;;;;;;;18.52;13.88;;;;;;;7.52;95.08;102278.06;5353295;27;20476;-65
2022/05/01 02:29:19;;;;;;;20.83;14.32;;;;;;;7.47;94.83;102267.59;5351161;27;20311;-65
2022/05/01 02:31:53;;;;;;;15.82;13.43;;;;;;;7.46;95.10;102263.25;5350721;27;20031;-65
2022/05/01 02:34:24;;;;;;;19.80;13.63;;;;;;;7.44;95.14;102264.22;5354627;27;20437;-65
2022/05/01 02:36:56;;;;;;;18.88;13.88;;;;;;;7.50;95.56;102258.66;5355081;27;20349;-65
2022/05/01 02:39:28;;;;;;;20.35;14.77;;;;;;;7.44;95.37;102261.56;5341188;27;20066;-65
2022/05/01 02:42:00;;;;;;;18.23;14.25;;;;;;;7.44;95.39;102245.63;5354024;27;20040;-65
2022/05/01 02:44:31;;;;;;;18.77;14.70;;;;;;;7.42;95.04;102251.00;5356611;27;20066;-65
2022/05/01 02:47:02;;;;;;;20.17;14.32;;;;;;;7.53;95.20;102253.22;5354561;27;20031;-65
2022/05/01 02:49:35;;;;;;;17.98;13.40;;;;;;;7.53;95.83;102253.22;5357631;27;20045;-65
2022/05/01 02:52:07;;;;;;;19.85;14.45;;;;;;;7.45;95.55;102250.00;5352767;27;20019;-65
2022/05/01 02:54:38;;;;;;;22.42;14.98;;;;;;;7.37;95.28;102252.97;5360999;27;20023;-65
2022/05/01 02:57:09;;;;;;;20.10;14.38;;;;;;;7.33;95.42;102250.53;5350193;27;20107;-65
2022/05/01 02:59:40;;;;;;;17.52;14.02;;;;;;;7.29;96.08;102254.22;5357366;27;20377;-65
2022/05/01 03:02:12;;;;;;;21.88;14.60;;;;;;;7.28;95.76;102252.50;5355530;27;20475;-65
2022/05/01 03:04:45;;;;;;;21.83;15.23;;;;;;;7.22;96.02;102253.59;5355751;27;20022;-65
2022/05/01 03:07:17;;;;;;;19.73;14.80;;;;;;;7.18;96.10;102241.38;5355254;27;20041;-65
2022/05/01 03:09:48;;;;;;;19.38;14.80;;;;;;;7.16;96.46;102248.53;5353187;27;20022;-65
2022/05/01 03:12:21;;;;;;;20.20;14.85;;;;;;;7.08;96.63;102238.22;5353741;27;20023;-65
2022/05/01 03:14:52;;;;;;;21.58;15.35;;;;;;;7.05;97.79;102243.66;5354727;27;20026;-65
2022/05/01 03:17:23;;;;;;;20.83;15.48;;;;;;;7.00;97.57;102253.56;5349252;27;20058;-65
2022/05/01 03:22:45;;;;;;;20.80;15.70;;;;;;;6.93;97.82;102238.81;5349881;27;20476;-65
2022/05/01 03:25:16;;;;;;;22.20;16.30;;;;;;;6.94;97.80;102240.53;5354741;27;20019;-65
2022/05/01 03:27:47;;;;;;;20.42;16.25;;;;;;;6.90;98.20;102241.59;5351788;27;20039;-65
2022/05/01 03:30:20;;;;;;;21.90;15.82;;;;;;;6.86;98.30;102238.19;5349507;27;20390;-65
2022/05/01 03:32:52;;;;;;;21.23;16.45;;;;;;;6.82;98.77;102234.78;5354117;27;20079;-65
2022/05/01 03:35:23;;;;;;;21.45;16.25;;;;;;;6.79;98.68;102232.25;5351461;27;20449;-65
2022/05/01 03:37:55;;;;;;;23.17;17.40;;;;;;;6.77;99.09;102228.81;5349731;27;20462;-65
2022/05/01 03:40:26;;;;;;;23.52;16.80;;;;;;;6.79;99.26;102231.41;5354415;27;20034;-65
2022/05/01 03:42:57;;;;;;;22.10;16.10;;;;;;;6.81;99.30;102230.41;5355423;27;20399;-65
2022/05/01 03:45:29;;;;;;;23.83;16.90;;;;;;;6.71;99.05;102229.00;5352099;27;20042;-65
2022/05/01 03:48:00;;;;;;;23.58;16.13;;;;;;;6.65;99.11;102227.50;5358164;27;20463;-65
2022/05/01 03:50:32;;;;;;;24.67;17.20;;;;;;;6.63;99.15;102223.16;5350140;27;20030;-65
2022/05/01 03:53:04;;;;;;;24.13;16.83;;;;;;;6.58;99.30;102231.28;5347723;27;20374;-65
2022/05/01 03:55:36;;;;;;;23.40;18.00;;;;;;;6.53;99.71;102235.88;5353495;27;20523;-65
2022/05/01 03:58:08;;;;;;;24.05;18.45;;;;;;;6.54;100.00;102231.44;5359857;27;20031;-65
2022/05/01 04:00:39;;;;;;;23.98;17.55;;;;;;;6.42;100.00;102233.66;5346574;27;20050;-65
2022/05/01 04:03:14;;;;;;;27.17;17.80;;;;;;;6.37;100.00;102232.94;5350716;27;20062;-65
2022/05/01 04:05:46;;;;;;;25.05;18.05;;;;;;;6.30;100.00;102236.72;5352813;27;20087;-65
2022/05/01 04:08:18;;;;;;;25.33;17.77;;;;;;;6.23;100.00;102238.75;5358538;27;20461;-65
2022/05/01 04:10:49;;;;;;;28.42;19.85;;;;;;;6.18;100.00;102237.19;5357785;27;20111;-65
2022/05/01 04:13:21;;;;;;;26.52;19.42;;;;;;;6.12;100.00;102234.72;5351827;27;20022;-65
2022/05/01 04:15:53;;;;;;;27.15;19.48;;;;;;;6.04;100.00;102238.53;5350316;27;20452;-65
2022/05/01 04:18:25;;;;;;;28.55;19.42;;;;;;;6.05;100.00;102228.78;5356818;27;20038;-65
2022/05/01 04:21:00;;;;;;;30.52;20.50;;;;;;;5.98;100.00;102241.38;5354392;27;20071;-65
2022/05/01 04:23:32;;;;;;;28.30;20.85;;;;;;;5.91;100.00;102231.91;5349610;27;20476;-65
2022/05/01 04:26:04;;;;;;;28.75;20.15;;;;;;;5.93;100.00;102230.06;5350616;27;20026;-65
2022/05/01 04:28:35;;;;;;;29.70;21.48;;;;;;;5.83;100.00;102234.81;5356383;27;20137;-65
2022/05/01 04:31:07;;;;;;;26.77;19.27;;;;;;;5.80;100.00;102234.91;5351283;27;20645;-65
2022/05/01 04:33:38;;;;;;;31.05;20.80;;;;;;;5.77;100.00;102234.16;5356272;27;20030;-65
2022/05/01 04:36:09;;;;;;;29.60;21.73;;;;;;;5.76;100.00;102233.28;5358430;27;20023;-65
2022/05/01 04:38:40;;;;;;;29.88;22.40;;;;;;;5.79;100.00;102235.84;5353499;27;20231;-65
2022/05/01 04:41:16;;;;;;;30.55;21.73;;;;;;;5.74;100.00;102237.78;5358070;27;20146;-65
2022/05/01 04:43:47;;;;;;;30.88;22.35;;;;;;;5.69;100.00;102235.28;5360504;27;20563;-65
2022/05/01 04:46:19;;;;;;;31.17;22.23;;;;;;;5.68;100.00;102238.84;5356256;27;20098;-65
2022/05/01 04:48:50;;;;;;;29.42;21.35;;;;;;;5.66;100.00;102235.38;5357860;27;20030;-65
2022/05/01 04:51:21;;;;;;;30.65;21.67;;;;;;;5.65;100.00;102235.44;5357338;27;20054;-65
2022/05/01 04:53:53;;;;;;;31.80;23.38;;;;;;;5.64;100.00;102242.50;5357964;27;20057;-65
2022/05/01 04:59:14;;;;;;;32.63;22.80;;;;;;;5.75;100.00;102246.56;5359735;27;20113;-65
2022/05/01 05:01:46;;;;;;;34.38;23.83;;;;;;;5.69;100.00;102247.66;5355419;27;20031;-65
2022/05/01 05:04:17;;;;;;;33.58;23.77;;;;;;;5.67;100.00;102245.03;5356474;27;20074;-65
2022/05/01 05:06:52;;;;;;;30.83;23.48;;;;;;;5.72;100.00;102241.41;5359370;27;20555;-65
2022/05/01 05:12:14;;;;;;;32.90;22.85;;;;;;;5.75;100.00;102249.22;5354898;27;20034;-65
2022/05/01 05:14:49;;;;;;;34.70;23.75;;;;;;;5.76;100.00;102243.88;5348411;27;20039;-65
2022/05/01 05:17:21;;;;;;;34.78;22.60;;;;;;;5.87;100.00;102243.53;5357825;27;20027;-65
2022/05/01 05:19:54;;;;;;;33.97;23.73;;;;;;;5.84;100.00;102251.56;5360821;27;20129;-65
2022/05/01 05:22:25;;;;;;;30.73;23.42;;;;;;;5.83;100.00;102253.34;5351055;27;20449;-65
2022/05/01 05:24:56;;;;;;;35.28;25.00;;;;;;;5.87;100.00;102248.81;5357063;27;20159;-65
2022/05/01 05:27:28;;;;;;;35.08;25.30;;;;;;;5.90;100.00;102252.22;5352136;27;20456;-65
2022/05/01 05:29:59;;;;;;;34.13;24.45;;;;;;;6.02;100.00;102250.97;5351861;27;20106;-65
2022/05/01 05:32:31;;;;;;;37.20;27.10;;;;;;;5.99;100.00;102253.72;5352655;27;20434;-65
2022/05/01 05:35:02;;;;;;;36.03;25.35;;;;;;;6.05;100.00;102256.16;5355126;27;20106;-65
2022/05/01 05:37:34;;;;;;;37.05;25.75;;;;;;;6.11;100.00;102262.16;5354937;27;20445;-65
2022/05/01 05:40:06;;;;;;;35.00;25.80;;;;;;;6.19;100.00;102260.97;5358796;27;20014;-65
2022/05/01 05:42:37;;;;;;;32.33;23.88;;;;;;;6.25;100.00;102267.81;5352546;27;20164;-65
2022/05/01 05:45:10;;;;;;;37.05;25.45;;;;;;;6.31;100.00;102264.09;5359810;27;20026;-65
2022/05/01 05:47:42;;;;;;;33.55;23.80;;;;;;;6.44;100.00;102270.69;5359280;27;20046;-65
2022/05/01 05:50:13;;;;;;;33.92;24.05;;;;;;;6.35;100.00;102274.56;5359641;27;20029;-65
2022/05/01 05:52:45;;;;;;;35.30;25.00;;;;;;;6.39;100.00;102272.66;5354785;27;20029;-64
2022/05/01 05:55:16;;;;;;;36.28;24.48;;;;;;;6.41;100.00;102271.69;5349808;27;20427;-65
2022/05/01 05:57:47;;;;;;;32.58;23.40;;;;;;;6.50;100.00;102274.91;5351607;27;20030;-65
2022/05/01 06:00:18;;;;;;;31.48;23.38;;;;;;;6.52;100.00;102275.72;5350634;27;20030;-65
2022/05/01 06:02:50;;;;;;;35.03;24.65;;;;;;;6.62;100.00;102279.78;5351006;27;20034;-65
2022/05/01 06:05:21;;;;;;;34.65;24.27;;;;;;;6.72;100.00;102275.00;5355113;27;20079;-65
2022/05/01 06:07:52;;;;;;;32.70;24.30;;;;;;;6.87;100.00;102269.97;5358070;27;20026;-65
2022/05/01 06:10:24;;;;;;;33.17;24.88;;;;;;;6.92;100.00;102276.88;5352921;27;20014;-65
2022/05/01 06:12:55;;;;;;;34.22;24.73;;;;;;;7.00;100.00;102269.47;5352218;27;20536;-65
2022/05/01 06:15:26;;;;;;;33.95;25.35;;;;;;;7.15;100.00;102276.88;5353021;27;20685;-65
2022/05/01 06:17:57;;;;;;;31.45;24.10;;;;;;;7.27;100.00;102272.88;5356234;27;20019;-65
2022/05/01 06:20:29;;;;;;;32.53;23.10;;;;;;;7.43;100.00;102279.28;5351037;27;21446;-65
2022/05/01 06:23:00;;;;;;;32.70;23.92;;;;;;;7.66;100.00;102272.19;5354651;27;20463;-65
2022/05/01 06:25:31;;;;;;;32.13;23.65;;;;;;;7.84;99.40;102270.53;5350992;27;20444;-65
2022/05/01 06:28:03;;;;;;;30.98;23.15;;;;;;;7.98;98.07;102277.94;5354362;27;20460;-65
2022/05/01 06:30:34;;;;;;;32.75;23.75;;;;;;;8.19;98.04;102269.03;5349627;27;20027;-65
2022/05/01 06:33:09;;;;;;;31.25;22.98;;;;;;;8.47;97.27;102270.50;5353743;27;20022;-65
2022/05/01 06:35:42;;;;;;;28.13;21.77;;;;;;;8.59;95.90;102269.97;5349504;27;20085;-65
2022/05/01 06:38:13;;;;;;;28.92;21.48;;;;;;;8.63;94.99;102276.00;5353055;27;20095;-65
2022/05/01 06:40:46;;;;;;;28.20;21.52;;;;;;;8.70;94.03;102276.59;5349842;27;20133;-65
2022/05/01 06:43:18;;;;;;;24.98;20.35;;;;;;;8.91;94.20;102283.56;5347839;27;20094;-65
2022/05/01 06:45:50;;;;;;;27.33;21.13;;;;;;;9.01;93.77;102278.69;5346875;27;20035;-65
2022/05/01 06:48:21;;;;;;;26.15;20.02;;;;;;;9.00;91.83;102283.16;5348466;27;20050;-65
2022/05/01 06:50:52;;;;;;;27.05;20.33;;;;;;;9.05;90.61;102280.28;5348589;27;20372;-65
2022/05/01 06:53:24;;;;;;;27.48;19.17;;;;;;;9.20;90.50;102292.88;5348924;27;20022;-65
2022/05/01 06:55:58;;;;;;;24.42;19.10;;;;;;;9.31;89.45;102281.69;5331086;27;20027;-65
2022/05/01 06:58:31;;;;;;;;;;;;;;;9.48;92.12;102290.69;5355495;27;20095;-65
2022/05/01 07:01:02;;;;;;;30.13;20.77;;;;;;;9.54;89.67;102282.38;5351325;27;19930;-65
2022/05/01 07:03:34;;;;;;;26.73;19.63;;;;;;;9.60;88.76;102282.94;5349737;27;20019;-65
2022/05/01 07:06:06;;;;;;;24.52;19.35;;;;;;;9.70;87.88;102275.34;5351673;27;20457;-65
2022/05/01 07:08:37;;;;;;;22.98;18.50;;;;;;;9.74;87.43;102286.72;5352657;27;20023;-65
2022/05/01 07:11:09;;;;;;;26.13;19.20;;;;;;;9.78;89.21;102286.50;5354809;27;20109;-64
2022/05/01 07:13:40;;;;;;;23.20;17.85;;;;;;;9.90;86.29;102289.50;5352635;27;20030;-64
2022/05/01 07:16:12;;;;;;;26.65;18.15;;;;;;;9.99;85.90;102299.66;5351728;27;20891;-65
2022/05/01 07:18:43;;;;;;;21.67;17.40;;;;;;;10.01;84.34;102287.16;5352373;27;20109;-65
2022/05/01 07:21:14;;;;;;;22.90;18.17;;;;;;;9.96;85.04;102290.03;5351185;27;20027;-65
2022/05/01 07:23:45;;;;;;;25.92;19.45;;;;;;;9.92;85.98;102290.28;5348963;27;20075;-64
2022/05/01 07:26:18;;;;;;;23.40;18.55;;;;;;;10.00;85.13;102285.41;5349850;27;20061;-64
2022/05/01 07:28:49;;;;;;;27.15;18.60;;;;;;;9.94;85.70;102294.59;5354052;27;20027;-65
2022/05/01 07:31:20;;;;;;;25.80;18.38;;;;;;;9.90;85.10;102293.00;5354199;27;20053;-64
2022/05/01 07:33:52;;;;;;;23.73;19.17;;;;;;;9.96;86.09;102300.69;5349248;27;20472;-64
2022/05/01 07:36:23;;;;;;;24.25;17.88;;;;;;;9.91;84.88;102291.22;5348419;27;20242;-65
2022/05/01 07:38:54;;;;;;;24.98;17.48;;;;;;;10.06;85.85;102300.25;5353169;27;20492;-64
2022/05/01 07:41:27;;;;;;;23.50;18.33;;;;;;;10.12;85.51;102294.59;5350395;27;20035;-64
2022/05/01 07:43:58;;;;;;;21.92;17.73;;;;;;;10.16;85.45;102298.81;5346247;27;20023;-64
2022/05/01 07:46:29;;;;;;;23.80;18.48;;;;;;;10.30;85.51;102299.00;5352571;27;20035;-64
2022/05/01 07:49:00;;;;;;;24.95;17.77;;;;;;;10.30;84.16;102293.69;5352964;27;20430;-64
2022/05/01 07:51:32;;;;;;;24.83;16.58;;;;;;;10.37;83.17;102299.53;5349957;27;20488;-64
2022/05/01 07:54:05;;;;;;;24.35;17.23;;;;;;;10.47;83.38;102302.59;5351967;27;20548;-65
2022/05/01 07:56:36;;;;;;;20.70;17.02;;;;;;;10.56;83.53;102299.44;5350076;27;20178;-64
2022/05/01 07:59:08;;;;;;;18.45;13.73;;;;;;;10.61;80.05;102301.88;5352221;27;20027;-65
2022/05/01 08:01:40;;;;;;;18.42;13.73;;;;;;;10.67;78.66;102294.38;5351562;27;20019;-65
2022/05/01 08:04:29;;;;;;;18.05;14.13;;;;;;;10.73;78.46;102291.38;5351396;27;20430;-65
2022/05/01 08:07:03;;;;;;;19.45;14.63;;;;;;;10.79;79.80;102283.03;5348350;27;20022;-65
2022/05/01 08:09:34;;;;;;;20.80;15.20;;;;;;;10.81;79.44;102282.97;5350150;27;21558;-65
2022/05/01 08:12:06;;;;;;;19.02;14.13;;;;;;;10.84;77.28;102292.63;5346743;27;20095;-65
2022/05/01 08:14:41;;;;;;;15.63;12.57;;;;;;;10.83;75.90;102280.22;5326593;27;20043;-65
2022/05/01 08:17:12;;;;;;;13.30;10.10;;;;;;;10.84;71.97;102289.97;5354328;27;20049;-65
2022/05/01 08:22:47;;;;;;;19.17;10.35;;;;;;;10.85;71.28;102276.50;5306015;27;20116;-65
2022/05/01 08:25:18;;;;;;;12.93;10.48;;;;;;;10.94;73.22;102268.00;5351467;27;20113;-65
2022/05/01 08:27:50;;;;;;;15.68;11.00;;;;;;;11.13;72.91;102283.00;5352425;27;20031;-65
2022/05/01 08:30:21;;;;;;;14.02;9.43;;;;;;;11.26;69.62;102276.03;5352885;27;20041;-65
2022/05/01 08:32:52;;;;;;;14.13;9.98;;;;;;;11.18;70.31;102265.78;5345371;27;20027;-65
2022/05/01 08:35:24;;;;;;;14.55;9.80;;;;;;;11.37;70.17;102276.28;5347545;27;20124;-65
2022/05/01 08:37:55;;;;;;;14.35;9.93;;;;;;;11.55;70.27;102266.34;5349335;27;20022;-65
2022/05/01 08:40:27;;;;;;;16.38;10.30;;;;;;;11.51;68.77;102271.97;5345086;27;20113;-65
2022/05/01 08:42:58;;;;;;;13.25;8.90;;;;;;;11.58;66.68;102273.31;5360569;27;20031;-65
2022/05/01 08:46:04;;;;;;;10.07;7.28;;;;;;;11.74;61.93;102273.31;5349662;27;20026;-65
2022/05/01 08:48:45;;;;;;;10.00;7.32;;;;;;;11.84;62.59;102273.63;5343829;27;20531;-65
2022/05/01 08:51:18;;;;;;;10.35;6.70;;;;;;;11.89;61.48;102279.53;5357584;27;20428;-65
2022/05/01 08:53:50;;;;;;;12.17;7.50;;;;;;;12.13;59.16;102269.22;5352292;27;20688;-66
2022/05/01 08:56:22;;;;;;;10.32;7.28;;;;;;;12.38;60.04;102276.63;5352622;27;20030;-65
2022/05/01 08:58:54;;;;;;;9.05;5.72;;;;;;;12.55;56.58;102280.94;5353251;27;20429;-65
2022/05/01 09:01:28;;;;;;;8.57;5.70;;;;;;;12.52;54.58;102267.72;5349875;27;20107;-64
2022/05/01 09:04:00;;;;;;;;;;;;;;;12.79;60.77;102272.31;5357929;27;20535;-64
2022/05/01 09:06:34;;;;;;;6.63;5.03;;;;;;;12.72;54.19;102264.69;5355151;27;20355;-64
2022/05/01 09:09:11;;;;;;;9.55;5.75;;;;;;;12.77;54.45;102279.59;5359190;27;20821;-64
2022/05/01 09:14:33;;;;;;;10.20;5.93;;;;;;;12.74;55.46;102273.47;5361266;27;20038;-64
2022/05/01 09:17:19;;;;;;;9.68;6.35;;;;;;;12.70;54.35;102269.28;5357347;27;20030;-64
2022/05/01 09:19:53;;;;;;;8.00;5.97;;;;;;;12.82;54.45;102274.81;5357633;27;20078;-64
2022/05/01 09:22:25;;;;;;;7.90;5.88;;;;;;;12.84;53.21;102265.72;5360866;27;20122;-64
2022/05/01 09:25:14;;;;;;;9.75;5.55;;;;;;;13.01;55.56;102263.81;5356798;27;20113;-64
2022/05/01 09:27:45;;;;;;;7.07;5.60;;;;;;;13.04;53.33;102261.78;5347573;27;20072;-64
2022/05/01 09:30:19;;;;;;;7.40;5.57;;;;;;;13.20;52.20;102264.31;5356089;27;20030;-64
2022/05/01 09:32:54;;;;;;;;;;;;;;;13.38;52.63;102264.97;5356977;27;20661;-64
2022/05/01 09:35:32;;;;;;;9.30;5.93;;;;;;;13.31;51.07;102269.03;5360904;27;19919;-64
2022/05/01 09:38:24;;;;;;;7.85;5.70;;;;;;;13.37;51.47;102270.47;5358726;27;20031;-64
2022/05/01 09:40:57;;;;;;;7.70;5.53;;;;;;;13.50;52.13;102274.03;5358229;27;20023;-64
2022/05/01 09:43:45;;;;;;;8.13;5.68;;;;;;;13.65;53.45;102269.47;5342980;27;20117;-64
2022/05/01 09:46:30;;;;;;;9.32;5.90;;;;;;;13.72;52.29;102273.47;5352733;27;20035;-65
2022/05/01 09:49:10;;;;;;;8.00;5.75;;;;;;;14.03;49.64;102272.25;5353313;27;20482;-65
2022/05/01 09:51:56;;;;;;;9.73;5.65;;;;;;;14.11;49.15;102279.75;5338016;27;20022;-64
2022/05/01 09:54:27;;;;;;;8.88;5.80;;;;;;;14.10;47.11;102272.69;5356015;27;20046;-64
2022/05/01 09:57:00;;;;;;;8.18;6.00;;;;;;;13.93;48.85;102273.84;5352714;27;20030;-65
2022/05/01 09:59:46;;;;;;;10.10;5.88;;;;;;;14.14;50.07;102271.50;5362894;27;20119;-64
2022/05/01 10:02:27;;;;;;;9.15;6.57;;;;;;;14.24;48.85;102269.06;5354586;27;20061;-64
2022/05/01 10:05:03;;;;;;;9.00;6.28;;;;;;;14.08;45.15;102267.44;5357447;27;20023;-65
2022/05/01 10:07:37;;;;;;;7.63;5.70;;;;;;;14.21;48.84;102263.88;5356336;27;20045;-64
2022/05/01 10:10:10;;;;;;;8.13;6.13;;;;;;;14.12;45.53;102268.09;5354082;27;20100;-65
2022/05/01 10:12:45;;;;;;;9.27;5.20;;;;;;;14.47;49.06;102259.38;5357848;27;20078;-65
2022/05/01 10:15:20;;;;;;;7.82;6.32;;;;;;;14.31;46.93;102259.63;5355854;27;20026;-65
2022/05/01 10:17:52;;;;;;;8.27;5.70;;;;;;;14.55;47.07;102257.00;5354888;27;20035;-65
2022/05/01 10:20:24;;;;;;;10.88;5.90;;;;;;;14.72;47.54;102255.00;5352625;27;20504;-65
2022/05/01 10:22:56;;;;;;;7.75;5.70;;;;;;;14.72;46.86;102253.16;5353907;27;20038;-65
2022/05/01 10:25:31;;;;;;;9.45;6.05;;;;;;;14.84;49.21;102246.03;5359552;27;20057;-64
2022/05/01 10:28:18;;;;;;;8.80;6.28;;;;;;;14.94;48.33;102247.13;5355038;27;20061;-65
2022/05/01 10:34:25;;;;;;;7.75;5.50;;;;;;;15.15;48.35;102244.69;5312681;27;20074;-65
2022/05/01 10:37:33;;;;;;;8.88;6.13;;;;;;;15.23;49.00;102238.75;5350096;27;21172;-65
2022/05/01 10:40:06;;;;;;;9.98;5.93;;;;;;;15.22;48.61;102243.25;5357040;27;20030;-65
2022/05/01 10:42:46;;;;;;;8.98;5.80;;;;;;;15.42;46.13;102236.41;5335898;27;20027;-65
2022/05/01 10:45:20;;;;;;;10.65;6.25;;;;;;;15.46;45.05;102229.81;5354228;27;20038;-65
2022/05/01 10:47:53;;;;;;;;;;;;;;;15.80;50.12;102229.97;5354540;27;20039;-65
2022/05/01 10:50:27;;;;;;;8.63;5.97;;;;;;;15.58;45.03;102233.41;5352260;27;20574;-65
2022/05/01 10:53:08;;;;;;;7.43;5.65;;;;;;;15.46;44.46;102219.03;5350531;27;20081;-65
2022/05/01 10:55:43;;;;;;;10.48;6.18;;;;;;;15.29;43.17;102227.53;5356331;27;20058;-65
2022/05/01 10:58:18;;;;;;;9.02;6.03;;;;;;;15.39;46.77;102225.84;5352295;27;20027;-65
2022/05/01 11:00:51;;;;;;;10.02;5.95;;;;;;;15.45;45.34;102220.00;5348941;27;20788;-65
2022/05/01 11:03:32;;;;;;;9.35;6.25;;;;;;;15.60;45.19;102218.00;5350604;27;20385;-65
2022/05/01 11:06:04;;;;;;;7.80;6.15;;;;;;;15.65;45.07;102220.34;5350316;27;20042;-65
2022/05/01 11:08:37;;;;;;;7.38;6.07;;;;;;;15.61;41.72;102217.03;5351740;27;20030;-65
2022/05/01 11:11:12;;;;;;;8.38;6.32;;;;;;;15.70;42.88;102218.16;5348504;27;20436;-65
2022/05/01 11:13:43;;;;;;;7.93;5.80;;;;;;;15.61;44.24;102214.34;5356682;27;20080;-65
2022/05/01 11:16:14;;;;;;;7.38;5.40;;;;;;;15.36;41.88;102215.34;5352533;27;20489;-65
2022/05/01 11:18:45;;;;;;;9.98;6.25;;;;;;;15.27;42.16;102208.81;5351454;27;20035;-65
2022/05/01 11:21:20;;;;;;;8.50;6.10;;;;;;;15.16;44.95;102207.91;5358615;27;20064;-63
2022/05/01 11:23:59;;;;;;;9.40;6.03;;;;;;;15.23;46.58;102196.56;5353322;27;20853;-65
2022/05/01 11:26:32;;;;;;;7.88;6.15;;;;;;;15.29;47.27;102190.72;5333412;27;20034;-65
2022/05/01 11:29:13;;;;;;;9.95;6.20;;;;;;;15.68;45.11;102202.13;5357879;27;20038;-65
2022/05/01 11:31:49;;;;;;;7.78;5.80;;;;;;;15.62;46.38;102193.66;5356593;27;20101;-65
2022/05/01 11:34:21;;;;;;;7.90;5.53;;;;;;;15.63;46.70;102190.03;5346311;27;20394;-65
2022/05/01 11:36:57;;;;;;;7.75;5.95;;;;;;;15.93;41.57;102184.09;5355503;27;20046;-64
2022/05/01 11:39:50;;;;;;;8.77;5.90;;;;;;;16.17;44.65;102181.34;5346261;27;20031;-65
2022/05/01 11:42:24;;;;;;;9.63;5.78;;;;;;;16.15;42.38;102188.69;5346764;27;20027;-65
2022/05/01 11:44:57;;;;;;;6.90;5.75;;;;;;;16.14;41.63;102184.25;5355768;27;20031;-65
2022/05/01 11:47:31;;;;;;;7.55;5.65;;;;;;;16.17;43.87;102175.09;5357358;27;20026;-64
2022/05/01 11:50:03;;;;;;;8.82;6.25;;;;;;;15.88;41.83;102175.56;5355540;27;20891;-64
2022/05/01 11:52:36;;;;;;;8.23;5.32;;;;;;;15.56;42.27;102170.78;5356176;27;20106;-65
2022/05/01 11:55:08;;;;;;;8.23;5.97;;;;;;;15.59;41.87;102172.38;5355970;27;20498;-65
2022/05/01 12:03:27;;;;;;;7.40;6.03;;;;;;;15.30;42.86;102167.38;5357138;27;20504;-64
2022/05/01 12:05:58;;;;;;;8.80;5.78;;;;;;;15.29;42.35;102163.00;5349084;27;20280;-65
2022/05/01 12:08:29;;;;;;;10.35;5.72;;;;;;;15.16;42.61;102164.88;5358090;27;20568;-65
2022/05/01 12:11:01;;;;;;;8.43;6.22;;;;;;;15.22;42.11;102164.41;5358225;27;20018;-65
2022/05/01 12:13:32;;;;;;;7.95;6.10;;;;;;;15.32;43.69;102153.81;5355786;27;20030;-65